Paradise — 3FOB5 — position and weather

sailwx.info

Track history (hours):
 
Tides and Currents Weather Stations Pressure Air Temp Water Temp Dewpoint Dewpoint Depression Visibility Wind Speed Wind Dir Waves Ship Positions

Paradise

Operator: Carnival Cruise Lines

Last reported at 2019-Jan-23 10:00 UTC. Time now 2019-Jan-24 06:32 UTC.
Position N 22°42' W 085°36'.

Type: Passenger vessel. MMSI: 355833000.

Wind from 110 at 35 knots

Barometer 1017.0 mb
Air temperature 24.0 ° C
Visibility: greater than 5.4 NM
Dewpoint 22.6 ° C
Water temperature 29.0 ° C

Date/timePositionNaut miles runAvg speedWind from/ knotsBaromVisibWave heightAir tempDewpointWater temp
2019-Jan-23 10:00N 22°42' W 085°36'8216.4 110 / 351017.0 5.4 24.022.629.0
2019-Jan-23 05:00N 21°30' W 086°18'5719.8 110 / 401019.710.8 23.018.527.0
2019-Jan-23 02:07N 20°42' W 086°51'219.5
2019-Jan-23 02:01N 20°40' W 086°52'1019.5
2019-Jan-23 01:31N 20°32' W 086°58'4 7.1
2019-Jan-23 01:00N 20°29' W 086°59'0 0.0
2019-Jan-23 00:29N 20°29' W 086°59'0 0.0
2019-Jan-22 23:56N 20°29' W 086°59'0 0.0
2019-Jan-22 23:29N 20°29' W 086°59'0 0.0
2019-Jan-22 22:59N 20°29' W 086°59'0 0.0
2019-Jan-22 22:29N 20°29' W 086°59'0 0.0
2019-Jan-22 21:59N 20°29' W 086°59'0 0.0
2019-Jan-22 21:29N 20°29' W 086°59'0 0.0
2019-Jan-22 20:59N 20°29' W 086°59'0 0.0
2019-Jan-22 20:29N 20°29' W 086°59'0 0.0
2019-Jan-22 19:59N 20°29' W 086°59'0 0.0
2019-Jan-22 19:29N 20°29' W 086°59'0 0.0
2019-Jan-22 18:59N 20°29' W 086°59'0 0.0
2019-Jan-22 18:29N 20°29' W 086°59'0 0.0
2019-Jan-22 17:56N 20°29' W 086°59'0 0.0
2019-Jan-22 17:29N 20°29' W 086°59'0 0.0
2019-Jan-22 16:53N 20°29' W 086°59'0 0.0
2019-Jan-22 16:29N 20°29' W 086°59'0 0.0
2019-Jan-22 15:56N 20°29' W 086°59'0 0.0
2019-Jan-22 15:30N 20°29' W 086°59'2 3.8
2019-Jan-22 15:00N 20°30' W 087°00'4 8.8
2019-Jan-22 14:30N 20°26' W 087°03'813.1
2019-Jan-22 13:54N 20°19' W 087°05'108 3.3
2019-Jan-21 05:00N 18°54' W 085°54'5518.4 340 / 301022.710.8 23.016.926.0
2019-Jan-21 02:00N 19°48' W 085°42'18118.1 030 / 251021.010.8 23.016.920.0
2019-Jan-20 16:00N 22°42' W 084°48'21619.6 320 / 351018.8 5.4 23.021.624.0
2019-Jan-20 05:00N 26°06' W 083°30'221 5.1 200 / 351012.210.8 21.018.021.0
2019-Jan-18 10:00N 22°54' W 085°30'8717.4 050 / 171019.710.8 22.015.827.0
2019-Jan-18 05:00N 21°36' W 086°12'6721.3 060 / 161020.710.8 23.018.527.0
2019-Jan-18 01:52N 20°41' W 086°52'719.4
2019-Jan-18 01:30N 20°35' W 086°56'613.0
2019-Jan-18 01:01N 20°29' W 086°59'0 0.9
2019-Jan-18 00:31N 20°29' W 086°59'0 0.0
2019-Jan-17 23:58N 20°29' W 086°59'0 0.0
2019-Jan-17 23:30N 20°29' W 086°59'0 0.0
2019-Jan-17 23:00N 20°29' W 086°59'0 0.0
2019-Jan-17 22:30N 20°29' W 086°59'0 0.0
2019-Jan-17 21:57N 20°29' W 086°59'0 0.0
2019-Jan-17 21:30N 20°29' W 086°59'0 0.0
2019-Jan-17 21:00N 20°29' W 086°59'0 0.0
2019-Jan-17 20:30N 20°29' W 086°59'0 0.0
2019-Jan-17 20:00N 20°29' W 086°59'0 0.0
2019-Jan-17 19:27N 20°29' W 086°59'0 0.0
2019-Jan-17 19:00N 20°29' W 086°59'0 0.0
2019-Jan-17 18:31N 20°29' W 086°59'0 0.0
2019-Jan-17 17:58N 20°29' W 086°59'0 0.0
2019-Jan-17 17:25N 20°29' W 086°59'0 0.0
2019-Jan-17 16:58N 20°29' W 086°59'0 0.0
2019-Jan-17 16:28N 20°29' W 086°59'0 0.0
2019-Jan-17 15:58N 20°29' W 086°59'0 0.0
2019-Jan-17 15:28N 20°29' W 086°59'0 0.0
2019-Jan-17 14:58N 20°29' W 086°59'1 1.9
2019-Jan-17 14:30N 20°29' W 086°59'3 5.9
2019-Jan-17 14:01N 20°32' W 086°58'4 8.1
2019-Jan-17 13:31N 20°36' W 086°55'713.6
2019-Jan-17 13:00N 20°40' W 086°50'228 7.1
2019-Jan-16 05:00N 20°12' W 082°48'27914.7 030 / 281019.010.8 23.018.527.0
2019-Jan-15 10:00N 24°42' W 084°06'9619.1 340 / 251021.3 5.4 19.015.926.0
2019-Jan-15 05:00N 26°12' W 083°30'187 4.3 360 / 121021.710.8 15.0 9.721.0
2019-Jan-13 10:00N 23°30' W 085°12'   090 / 101019.1 5.4 25.020.729.0
Track history (hours):
 
Tides and Currents Weather Stations Pressure Air Temp Water Temp Dewpoint Dewpoint Depression Visibility Wind Speed Wind Dir Waves Ship Positions

Paradise

Operator: Carnival Cruise Lines

Last reported at 2019-Jan-23 10:00 UTC. Time now 2019-Jan-24 06:32 UTC.
Position N 22°42' W 085°36'.

Type: Passenger vessel. MMSI: 355833000.

Wind from 110 at 35 knots

Barometer 1017.0 mb
Air temperature 24.0 ° C
Visibility: greater than 5.4 NM
Dewpoint 22.6 ° C
Water temperature 29.0 ° C

Date/timePositionNaut miles runAvg speedWind from/ knotsBaromVisibWave heightAir tempDewpointWater temp
2019-Jan-23 10:00N 22°42' W 085°36'8216.4 110 / 351017.0 5.4 24.022.629.0
2019-Jan-23 05:00N 21°30' W 086°18'5719.8 110 / 401019.710.8 23.018.527.0
2019-Jan-23 02:07N 20°42' W 086°51'219.5
2019-Jan-23 02:01N 20°40' W 086°52'1019.5
2019-Jan-23 01:31N 20°32' W 086°58'4 7.1
2019-Jan-23 01:00N 20°29' W 086°59'0 0.0
2019-Jan-23 00:29N 20°29' W 086°59'0 0.0
2019-Jan-22 23:56N 20°29' W 086°59'0 0.0
2019-Jan-22 23:29N 20°29' W 086°59'0 0.0
2019-Jan-22 22:59N 20°29' W 086°59'0 0.0
2019-Jan-22 22:29N 20°29' W 086°59'0 0.0
2019-Jan-22 21:59N 20°29' W 086°59'0 0.0
2019-Jan-22 21:29N 20°29' W 086°59'0 0.0
2019-Jan-22 20:59N 20°29' W 086°59'0 0.0
2019-Jan-22 20:29N 20°29' W 086°59'0 0.0
2019-Jan-22 19:59N 20°29' W 086°59'0 0.0
2019-Jan-22 19:29N 20°29' W 086°59'0 0.0
2019-Jan-22 18:59N 20°29' W 086°59'0 0.0
2019-Jan-22 18:29N 20°29' W 086°59'0 0.0
2019-Jan-22 17:56N 20°29' W 086°59'0 0.0
2019-Jan-22 17:29N 20°29' W 086°59'0 0.0
2019-Jan-22 16:53N 20°29' W 086°59'0 0.0
2019-Jan-22 16:29N 20°29' W 086°59'0 0.0
2019-Jan-22 15:56N 20°29' W 086°59'0 0.0
2019-Jan-22 15:30N 20°29' W 086°59'2 3.8
2019-Jan-22 15:00N 20°30' W 087°00'4 8.8
2019-Jan-22 14:30N 20°26' W 087°03'813.1
2019-Jan-22 13:54N 20°19' W 087°05'108 3.3
2019-Jan-21 05:00N 18°54' W 085°54'5518.4 340 / 301022.710.8 23.016.926.0
2019-Jan-21 02:00N 19°48' W 085°42'18118.1 030 / 251021.010.8 23.016.920.0
2019-Jan-20 16:00N 22°42' W 084°48'21619.6 320 / 351018.8 5.4 23.021.624.0
2019-Jan-20 05:00N 26°06' W 083°30'221 5.1 200 / 351012.210.8 21.018.021.0
2019-Jan-18 10:00N 22°54' W 085°30'8717.4 050 / 171019.710.8 22.015.827.0
2019-Jan-18 05:00N 21°36' W 086°12'6721.3 060 / 161020.710.8 23.018.527.0
2019-Jan-18 01:52N 20°41' W 086°52'719.4
2019-Jan-18 01:30N 20°35' W 086°56'613.0
2019-Jan-18 01:01N 20°29' W 086°59'0 0.9
2019-Jan-18 00:31N 20°29' W 086°59'0 0.0
2019-Jan-17 23:58N 20°29' W 086°59'0 0.0
2019-Jan-17 23:30N 20°29' W 086°59'0 0.0
2019-Jan-17 23:00N 20°29' W 086°59'0 0.0
2019-Jan-17 22:30N 20°29' W 086°59'0 0.0
2019-Jan-17 21:57N 20°29' W 086°59'0 0.0
2019-Jan-17 21:30N 20°29' W 086°59'0 0.0
2019-Jan-17 21:00N 20°29' W 086°59'0 0.0
2019-Jan-17 20:30N 20°29' W 086°59'0 0.0
2019-Jan-17 20:00N 20°29' W 086°59'0 0.0
2019-Jan-17 19:27N 20°29' W 086°59'0 0.0
2019-Jan-17 19:00N 20°29' W 086°59'0 0.0
2019-Jan-17 18:31N 20°29' W 086°59'0 0.0
2019-Jan-17 17:58N 20°29' W 086°59'0 0.0
2019-Jan-17 17:25N 20°29' W 086°59'0 0.0
2019-Jan-17 16:58N 20°29' W 086°59'0 0.0
2019-Jan-17 16:28N 20°29' W 086°59'0 0.0
2019-Jan-17 15:58N 20°29' W 086°59'0 0.0
2019-Jan-17 15:28N 20°29' W 086°59'0 0.0
2019-Jan-17 14:58N 20°29' W 086°59'1 1.9
2019-Jan-17 14:30N 20°29' W 086°59'3 5.9
2019-Jan-17 14:01N 20°32' W 086°58'4 8.1
2019-Jan-17 13:31N 20°36' W 086°55'713.6
2019-Jan-17 13:00N 20°40' W 086°50'228 7.1
2019-Jan-16 05:00N 20°12' W 082°48'27914.7 030 / 281019.010.8 23.018.527.0
2019-Jan-15 10:00N 24°42' W 084°06'9619.1 340 / 251021.3 5.4 19.015.926.0
2019-Jan-15 05:00N 26°12' W 083°30'187 4.3 360 / 121021.710.8 15.0 9.721.0
2019-Jan-13 10:00N 23°30' W 085°12'   090 / 101019.1 5.4 25.020.729.0

Dump ship's entire track history